sensor_id;sensor_type;location;lat;lon;timestamp;P1;durP1;ratioP1;P2;durP2;ratioP2
61009;SDS011;46897;55.340;86.082;2022-12-20T00:02:03;114.38;;;35.42;;
61009;SDS011;46897;55.340;86.082;2022-12-20T00:04:33;104.22;;;35.35;;
61009;SDS011;46897;55.340;86.082;2022-12-20T00:07:03;114.28;;;38.28;;
61009;SDS011;46897;55.340;86.082;2022-12-20T00:09:33;125.95;;;38.70;;
61009;SDS011;46897;55.340;86.082;2022-12-20T00:12:02;146.23;;;43.35;;
61009;SDS011;46897;55.340;86.082;2022-12-20T00:14:32;162.05;;;48.15;;
61009;SDS011;46897;55.340;86.082;2022-12-20T00:17:01;120.28;;;40.80;;
61009;SDS011;46897;55.340;86.082;2022-12-20T00:19:30;145.27;;;47.03;;
61009;SDS011;46897;55.340;86.082;2022-12-20T00:21:59;143.68;;;43.72;;
61009;SDS011;46897;55.340;86.082;2022-12-20T00:24:30;154.80;;;47.63;;
61009;SDS011;46897;55.340;86.082;2022-12-20T00:27:00;122.32;;;40.63;;
61009;SDS011;46897;55.340;86.082;2022-12-20T00:29:29;129.27;;;42.38;;
61009;SDS011;46897;55.340;86.082;2022-12-20T00:31:58;111.28;;;40.30;;
61009;SDS011;46897;55.340;86.082;2022-12-20T00:34:27;117.38;;;36.00;;
61009;SDS011;46897;55.340;86.082;2022-12-20T00:36:57;123.53;;;40.95;;
61009;SDS011;46897;55.340;86.082;2022-12-20T00:39:26;115.65;;;35.67;;
61009;SDS011;46897;55.340;86.082;2022-12-20T00:41:57;105.22;;;35.90;;
61009;SDS011;46897;55.340;86.082;2022-12-20T00:44:26;104.10;;;35.97;;
61009;SDS011;46897;55.340;86.082;2022-12-20T00:46:56;121.97;;;40.40;;
61009;SDS011;46897;55.340;86.082;2022-12-20T00:49:25;131.25;;;37.55;;
61009;SDS011;46897;55.340;86.082;2022-12-20T00:51:54;139.50;;;37.75;;
61009;SDS011;46897;55.340;86.082;2022-12-20T00:54:24;135.55;;;38.33;;
61009;SDS011;46897;55.340;86.082;2022-12-20T00:56:53;150.25;;;40.28;;
61009;SDS011;46897;55.340;86.082;2022-12-20T00:59:24;120.28;;;35.60;;
61009;SDS011;46897;55.340;86.082;2022-12-20T01:01:53;135.27;;;39.33;;
61009;SDS011;46897;55.340;86.082;2022-12-20T01:04:23;138.77;;;40.42;;
61009;SDS011;46897;55.340;86.082;2022-12-20T01:06:52;119.32;;;37.83;;
61009;SDS011;46897;55.340;86.082;2022-12-20T01:09:21;120.25;;;36.90;;
61009;SDS011;46897;55.340;86.082;2022-12-20T01:11:50;142.43;;;41.83;;
61009;SDS011;46897;55.340;86.082;2022-12-20T01:14:20;110.88;;;36.03;;
61009;SDS011;46897;55.340;86.082;2022-12-20T01:16:51;125.22;;;37.55;;
61009;SDS011;46897;55.340;86.082;2022-12-20T01:19:20;112.53;;;33.95;;
61009;SDS011;46897;55.340;86.082;2022-12-20T01:21:49;103.95;;;31.98;;
61009;SDS011;46897;55.340;86.082;2022-12-20T01:24:19;111.30;;;33.50;;
61009;SDS011;46897;55.340;86.082;2022-12-20T01:26:48;130.05;;;35.30;;
61009;SDS011;46897;55.340;86.082;2022-12-20T01:29:17;140.20;;;38.25;;
61009;SDS011;46897;55.340;86.082;2022-12-20T01:31:47;150.20;;;40.90;;
61009;SDS011;46897;55.340;86.082;2022-12-20T01:34:18;133.15;;;41.50;;
61009;SDS011;46897;55.340;86.082;2022-12-20T01:36:47;124.13;;;35.72;;
61009;SDS011;46897;55.340;86.082;2022-12-20T01:39:17;163.13;;;47.22;;
61009;SDS011;46897;55.340;86.082;2022-12-20T01:41:46;163.68;;;45.03;;
61009;SDS011;46897;55.340;86.082;2022-12-20T01:47:22;136.82;;;41.83;;
61009;SDS011;46897;55.340;86.082;2022-12-20T01:49:55;146.07;;;42.67;;
61009;SDS011;46897;55.340;86.082;2022-12-20T01:52:27;146.65;;;44.03;;
61009;SDS011;46897;55.340;86.082;2022-12-20T01:55:02;159.73;;;45.45;;
61009;SDS011;46897;55.340;86.082;2022-12-20T01:57:36;152.18;;;42.45;;
61009;SDS011;46897;55.340;86.082;2022-12-20T02:00:10;138.68;;;41.45;;
61009;SDS011;46897;55.340;86.082;2022-12-20T02:02:40;146.50;;;44.67;;
61009;SDS011;46897;55.340;86.082;2022-12-20T02:05:13;141.75;;;43.97;;
61009;SDS011;46897;55.340;86.082;2022-12-20T02:07:44;128.15;;;38.08;;
61009;SDS011;46897;55.340;86.082;2022-12-20T02:10:17;128.27;;;39.45;;
61009;SDS011;46897;55.340;86.082;2022-12-20T02:12:48;123.60;;;35.92;;
61009;SDS011;46897;55.340;86.082;2022-12-20T02:15:27;126.20;;;38.92;;
61009;SDS011;46897;55.340;86.082;2022-12-20T02:18:06;149.40;;;45.28;;
61009;SDS011;46897;55.340;86.082;2022-12-20T02:20:50;157.13;;;45.47;;
61009;SDS011;46897;55.340;86.082;2022-12-20T02:27:03;124.75;;;37.00;;
61009;SDS011;46897;55.340;86.082;2022-12-20T02:30:04;121.38;;;36.17;;
61009;SDS011;46897;55.340;86.082;2022-12-20T02:32:37;138.15;;;41.33;;
61009;SDS011;46897;55.340;86.082;2022-12-20T02:35:11;153.80;;;44.63;;
61009;SDS011;46897;55.340;86.082;2022-12-20T02:37:46;171.20;;;49.15;;
61009;SDS011;46897;55.340;86.082;2022-12-20T02:40:21;172.18;;;47.78;;
61009;SDS011;46897;55.340;86.082;2022-12-20T02:42:54;162.82;;;48.03;;
61009;SDS011;46897;55.340;86.082;2022-12-20T02:45:28;134.18;;;42.05;;
61009;SDS011;46897;55.340;86.082;2022-12-20T02:48:01;144.15;;;43.85;;
61009;SDS011;46897;55.340;86.082;2022-12-20T02:50:34;139.40;;;40.20;;
61009;SDS011;46897;55.340;86.082;2022-12-20T02:53:05;106.43;;;34.40;;
61009;SDS011;46897;55.340;86.082;2022-12-20T02:55:39;114.28;;;34.05;;
61009;SDS011;46897;55.340;86.082;2022-12-20T02:58:15;100.97;;;34.08;;
61009;SDS011;46897;55.340;86.082;2022-12-20T03:00:52;113.30;;;37.22;;
61009;SDS011;46897;55.340;86.082;2022-12-20T03:03:24;104.15;;;35.70;;
61009;SDS011;46897;55.340;86.082;2022-12-20T03:05:55;133.52;;;39.60;;
61009;SDS011;46897;55.340;86.082;2022-12-20T03:08:24;117.22;;;37.90;;
61009;SDS011;46897;55.340;86.082;2022-12-20T03:10:54;93.63;;;33.85;;
61009;SDS011;46897;55.340;86.082;2022-12-20T03:13:24;98.15;;;30.73;;
61009;SDS011;46897;55.340;86.082;2022-12-20T03:15:55;107.88;;;37.15;;
61009;SDS011;46897;55.340;86.082;2022-12-20T03:18:24;112.65;;;38.22;;
61009;SDS011;46897;55.340;86.082;2022-12-20T03:20:53;123.53;;;40.38;;
61009;SDS011;46897;55.340;86.082;2022-12-20T03:23:23;126.30;;;43.38;;
61009;SDS011;46897;55.340;86.082;2022-12-20T03:25:52;139.50;;;43.40;;
61009;SDS011;46897;55.340;86.082;2022-12-20T03:28:22;131.65;;;43.60;;
61009;SDS011;46897;55.340;86.082;2022-12-20T03:30:51;128.85;;;41.72;;
61009;SDS011;46897;55.340;86.082;2022-12-20T03:33:22;135.05;;;44.03;;
61009;SDS011;46897;55.340;86.082;2022-12-20T03:35:51;142.27;;;45.90;;
61009;SDS011;46897;55.340;86.082;2022-12-20T03:38:21;127.07;;;38.17;;
61009;SDS011;46897;55.340;86.082;2022-12-20T03:40:50;125.45;;;41.33;;
61009;SDS011;46897;55.340;86.082;2022-12-20T03:43:19;133.55;;;44.03;;
61009;SDS011;46897;55.340;86.082;2022-12-20T03:45:49;133.10;;;46.85;;
61009;SDS011;46897;55.340;86.082;2022-12-20T03:48:18;138.23;;;44.83;;
61009;SDS011;46897;55.340;86.082;2022-12-20T03:50:49;151.65;;;46.20;;
61009;SDS011;46897;55.340;86.082;2022-12-20T03:53:18;162.32;;;51.88;;
61009;SDS011;46897;55.340;86.082;2022-12-20T03:55:47;162.05;;;52.15;;
61009;SDS011;46897;55.340;86.082;2022-12-20T03:58:16;160.13;;;52.88;;
61009;SDS011;46897;55.340;86.082;2022-12-20T04:00:46;155.70;;;50.10;;
61009;SDS011;46897;55.340;86.082;2022-12-20T04:03:15;129.35;;;45.45;;
61009;SDS011;46897;55.340;86.082;2022-12-20T04:05:44;135.05;;;44.17;;
61009;SDS011;46897;55.340;86.082;2022-12-20T04:08:15;142.07;;;44.47;;
61009;SDS011;46897;55.340;86.082;2022-12-20T04:10:44;127.55;;;41.20;;
61009;SDS011;46897;55.340;86.082;2022-12-20T04:13:30;129.25;;;44.85;;
61009;SDS011;46897;55.340;86.082;2022-12-20T04:16:00;132.98;;;45.35;;
61009;SDS011;46897;55.340;86.082;2022-12-20T04:18:29;113.40;;;41.03;;
61009;SDS011;46897;55.340;86.082;2022-12-20T04:20:58;104.57;;;37.97;;
61009;SDS011;46897;55.340;86.082;2022-12-20T04:23:29;89.93;;;30.25;;
61009;SDS011;46897;55.340;86.082;2022-12-20T04:25:59;90.70;;;31.52;;
61009;SDS011;46897;55.340;86.082;2022-12-20T04:28:28;98.40;;;31.10;;
61009;SDS011;46897;55.340;86.082;2022-12-20T04:30:57;93.72;;;31.92;;
61009;SDS011;46897;55.340;86.082;2022-12-20T04:33:27;89.30;;;31.25;;
61009;SDS011;46897;55.340;86.082;2022-12-20T04:35:57;85.07;;;31.67;;
61009;SDS011;46897;55.340;86.082;2022-12-20T04:38:26;89.72;;;29.83;;
61009;SDS011;46897;55.340;86.082;2022-12-20T04:40:56;82.30;;;31.13;;
61009;SDS011;46897;55.340;86.082;2022-12-20T04:43:26;86.30;;;30.65;;
61009;SDS011;46897;55.340;86.082;2022-12-20T04:45:55;90.55;;;32.60;;
61009;SDS011;46897;55.340;86.082;2022-12-20T04:48:25;91.50;;;32.97;;
61009;SDS011;46897;55.340;86.082;2022-12-20T04:51:15;91.75;;;32.35;;
61009;SDS011;46897;55.340;86.082;2022-12-20T04:53:44;112.15;;;38.40;;
61009;SDS011;46897;55.340;86.082;2022-12-20T04:56:17;150.85;;;48.92;;
61009;SDS011;46897;55.340;86.082;2022-12-20T04:58:49;133.38;;;42.63;;
61009;SDS011;46897;55.340;86.082;2022-12-20T05:01:19;157.48;;;50.28;;
61009;SDS011;46897;55.340;86.082;2022-12-20T05:03:49;167.32;;;55.22;;
61009;SDS011;46897;55.340;86.082;2022-12-20T05:06:19;198.80;;;62.95;;
61009;SDS011;46897;55.340;86.082;2022-12-20T05:08:48;189.13;;;61.00;;
61009;SDS011;46897;55.340;86.082;2022-12-20T05:11:19;196.63;;;64.88;;
61009;SDS011;46897;55.340;86.082;2022-12-20T05:13:48;208.45;;;66.63;;
61009;SDS011;46897;55.340;86.082;2022-12-20T05:16:17;189.60;;;60.22;;
61009;SDS011;46897;55.340;86.082;2022-12-20T05:18:46;156.68;;;52.50;;
61009;SDS011;46897;55.340;86.082;2022-12-20T05:21:16;167.85;;;52.85;;
61009;SDS011;46897;55.340;86.082;2022-12-20T05:24:02;128.10;;;42.45;;
61009;SDS011;46897;55.340;86.082;2022-12-20T05:26:50;112.35;;;35.67;;
61009;SDS011;46897;55.340;86.082;2022-12-20T05:29:19;98.10;;;33.65;;
61009;SDS011;46897;55.340;86.082;2022-12-20T05:31:48;78.57;;;24.23;;
61009;SDS011;46897;55.340;86.082;2022-12-20T05:34:17;64.03;;;21.23;;
61009;SDS011;46897;55.340;86.082;2022-12-20T05:36:47;50.22;;;17.92;;
61009;SDS011;46897;55.340;86.082;2022-12-20T05:39:16;47.55;;;16.35;;
61009;SDS011;46897;55.340;86.082;2022-12-20T05:41:45;47.35;;;16.60;;
61009;SDS011;46897;55.340;86.082;2022-12-20T05:44:16;36.05;;;11.90;;
61009;SDS011;46897;55.340;86.082;2022-12-20T05:46:46;33.53;;;11.98;;
61009;SDS011;46897;55.340;86.082;2022-12-20T05:49:15;33.42;;;12.52;;
61009;SDS011;46897;55.340;86.082;2022-12-20T05:51:45;38.03;;;12.98;;
61009;SDS011;46897;55.340;86.082;2022-12-20T05:54:14;35.83;;;13.25;;
61009;SDS011;46897;55.340;86.082;2022-12-20T05:56:43;34.67;;;13.50;;
61009;SDS011;46897;55.340;86.082;2022-12-20T05:59:12;37.35;;;13.73;;
61009;SDS011;46897;55.340;86.082;2022-12-20T06:01:45;31.67;;;13.23;;
61009;SDS011;46897;55.340;86.082;2022-12-20T06:04:14;28.33;;;11.63;;
61009;SDS011;46897;55.340;86.082;2022-12-20T06:06:43;34.22;;;12.75;;
61009;SDS011;46897;55.340;86.082;2022-12-20T06:09:12;40.15;;;13.80;;
61009;SDS011;46897;55.340;86.082;2022-12-20T06:11:42;39.30;;;13.40;;
61009;SDS011;46897;55.340;86.082;2022-12-20T06:14:11;51.58;;;15.30;;
61009;SDS011;46897;55.340;86.082;2022-12-20T06:16:40;54.53;;;17.75;;
61009;SDS011;46897;55.340;86.082;2022-12-20T06:19:11;50.72;;;17.27;;
61009;SDS011;46897;55.340;86.082;2022-12-20T06:21:47;63.53;;;23.75;;
61009;SDS011;46897;55.340;86.082;2022-12-20T06:24:16;60.40;;;18.65;;
61009;SDS011;46897;55.340;86.082;2022-12-20T06:26:45;52.90;;;17.33;;
61009;SDS011;46897;55.340;86.082;2022-12-20T06:29:14;57.25;;;18.00;;
61009;SDS011;46897;55.340;86.082;2022-12-20T06:31:45;50.60;;;17.35;;
61009;SDS011;46897;55.340;86.082;2022-12-20T06:34:16;50.03;;;17.65;;
61009;SDS011;46897;55.340;86.082;2022-12-20T06:36:46;56.63;;;17.92;;
61009;SDS011;46897;55.340;86.082;2022-12-20T06:39:15;63.47;;;18.55;;
61009;SDS011;46897;55.340;86.082;2022-12-20T06:41:44;59.95;;;18.70;;
61009;SDS011;46897;55.340;86.082;2022-12-20T06:44:13;41.70;;;15.50;;
61009;SDS011;46897;55.340;86.082;2022-12-20T06:46:43;48.03;;;15.60;;
61009;SDS011;46897;55.340;86.082;2022-12-20T06:49:12;48.30;;;14.95;;
61009;SDS011;46897;55.340;86.082;2022-12-20T06:51:43;52.22;;;16.17;;
61009;SDS011;46897;55.340;86.082;2022-12-20T06:54:12;55.80;;;16.70;;
61009;SDS011;46897;55.340;86.082;2022-12-20T06:56:42;54.33;;;17.83;;
61009;SDS011;46897;55.340;86.082;2022-12-20T06:59:11;49.97;;;15.90;;
61009;SDS011;46897;55.340;86.082;2022-12-20T07:01:40;53.47;;;17.90;;
61009;SDS011;46897;55.340;86.082;2022-12-20T07:04:09;42.53;;;14.63;;
61009;SDS011;46897;55.340;86.082;2022-12-20T07:06:38;49.83;;;15.48;;
61009;SDS011;46897;55.340;86.082;2022-12-20T07:09:09;45.63;;;15.10;;
61009;SDS011;46897;55.340;86.082;2022-12-20T07:11:38;44.83;;;14.63;;
61009;SDS011;46897;55.340;86.082;2022-12-20T07:14:09;42.85;;;13.48;;
61009;SDS011;46897;55.340;86.082;2022-12-20T07:16:38;40.17;;;13.20;;
61009;SDS011;46897;55.340;86.082;2022-12-20T07:19:09;36.97;;;13.57;;
61009;SDS011;46897;55.340;86.082;2022-12-20T07:21:39;41.63;;;13.15;;
61009;SDS011;46897;55.340;86.082;2022-12-20T07:24:10;42.53;;;12.10;;
61009;SDS011;46897;55.340;86.082;2022-12-20T07:26:39;48.47;;;13.40;;
61009;SDS011;46897;55.340;86.082;2022-12-20T07:29:09;46.70;;;13.82;;
61009;SDS011;46897;55.340;86.082;2022-12-20T07:31:41;38.60;;;12.18;;
61009;SDS011;46897;55.340;86.082;2022-12-20T07:34:11;36.25;;;12.93;;
61009;SDS011;46897;55.340;86.082;2022-12-20T07:36:40;33.08;;;11.00;;
61009;SDS011;46897;55.340;86.082;2022-12-20T07:39:10;27.52;;;9.70;;
61009;SDS011;46897;55.340;86.082;2022-12-20T07:41:41;35.35;;;11.05;;
61009;SDS011;46897;55.340;86.082;2022-12-20T07:44:11;33.50;;;10.90;;
61009;SDS011;46897;55.340;86.082;2022-12-20T07:46:41;34.05;;;10.35;;
61009;SDS011;46897;55.340;86.082;2022-12-20T07:49:10;24.73;;;9.75;;
61009;SDS011;46897;55.340;86.082;2022-12-20T07:51:40;29.25;;;9.27;;
61009;SDS011;46897;55.340;86.082;2022-12-20T07:54:16;25.15;;;8.48;;
61009;SDS011;46897;55.340;86.082;2022-12-20T07:56:48;28.02;;;8.90;;
61009;SDS011;46897;55.340;86.082;2022-12-20T07:59:23;28.25;;;9.77;;
61009;SDS011;46897;55.340;86.082;2022-12-20T08:01:56;28.17;;;9.40;;
61009;SDS011;46897;55.340;86.082;2022-12-20T08:04:30;28.35;;;8.20;;
61009;SDS011;46897;55.340;86.082;2022-12-20T08:07:01;31.13;;;10.27;;
61009;SDS011;46897;55.340;86.082;2022-12-20T08:09:33;28.15;;;9.40;;
61009;SDS011;46897;55.340;86.082;2022-12-20T08:12:05;30.35;;;10.35;;
61009;SDS011;46897;55.340;86.082;2022-12-20T08:14:36;22.80;;;9.48;;
61009;SDS011;46897;55.340;86.082;2022-12-20T08:17:05;28.05;;;8.88;;
61009;SDS011;46897;55.340;86.082;2022-12-20T08:19:35;29.67;;;9.85;;
61009;SDS011;46897;55.340;86.082;2022-12-20T08:22:04;35.20;;;10.45;;
61009;SDS011;46897;55.340;86.082;2022-12-20T08:24:35;26.73;;;10.25;;
61009;SDS011;46897;55.340;86.082;2022-12-20T08:27:05;25.65;;;9.25;;
61009;SDS011;46897;55.340;86.082;2022-12-20T08:29:35;39.58;;;13.27;;
61009;SDS011;46897;55.340;86.082;2022-12-20T08:32:04;32.95;;;10.00;;
61009;SDS011;46897;55.340;86.082;2022-12-20T08:34:33;40.03;;;11.20;;
61009;SDS011;46897;55.340;86.082;2022-12-20T08:37:02;33.80;;;10.55;;
61009;SDS011;46897;55.340;86.082;2022-12-20T08:39:41;43.78;;;10.77;;
61009;SDS011;46897;55.340;86.082;2022-12-20T08:42:11;39.67;;;12.10;;
61009;SDS011;46897;55.340;86.082;2022-12-20T08:44:40;20.90;;;7.88;;
61009;SDS011;46897;55.340;86.082;2022-12-20T08:47:09;24.90;;;9.60;;
61009;SDS011;46897;55.340;86.082;2022-12-20T08:49:39;26.15;;;8.90;;
61009;SDS011;46897;55.340;86.082;2022-12-20T08:52:13;24.67;;;7.38;;
61009;SDS011;46897;55.340;86.082;2022-12-20T08:54:44;19.13;;;7.95;;
61009;SDS011;46897;55.340;86.082;2022-12-20T08:57:13;23.52;;;7.50;;
61009;SDS011;46897;55.340;86.082;2022-12-20T08:59:43;21.58;;;8.35;;
61009;SDS011;46897;55.340;86.082;2022-12-20T09:02:12;25.95;;;9.43;;
61009;SDS011;46897;55.340;86.082;2022-12-20T09:04:42;31.33;;;9.45;;
61009;SDS011;46897;55.340;86.082;2022-12-20T09:07:11;29.35;;;9.13;;
61009;SDS011;46897;55.340;86.082;2022-12-20T09:09:40;26.98;;;9.15;;
61009;SDS011;46897;55.340;86.082;2022-12-20T09:12:11;25.42;;;8.90;;
61009;SDS011;46897;55.340;86.082;2022-12-20T09:14:40;22.55;;;8.65;;
61009;SDS011;46897;55.340;86.082;2022-12-20T09:17:09;27.52;;;7.95;;
61009;SDS011;46897;55.340;86.082;2022-12-20T09:19:38;18.83;;;6.40;;
61009;SDS011;46897;55.340;86.082;2022-12-20T09:22:07;21.00;;;7.57;;
61009;SDS011;46897;55.340;86.082;2022-12-20T09:24:37;20.77;;;8.48;;
61009;SDS011;46897;55.340;86.082;2022-12-20T09:27:06;18.50;;;6.70;;
61009;SDS011;46897;55.340;86.082;2022-12-20T09:29:40;19.33;;;6.53;;
61009;SDS011;46897;55.340;86.082;2022-12-20T09:32:09;29.27;;;9.45;;
61009;SDS011;46897;55.340;86.082;2022-12-20T09:34:39;18.67;;;7.45;;
61009;SDS011;46897;55.340;86.082;2022-12-20T09:37:08;23.73;;;8.85;;
61009;SDS011;46897;55.340;86.082;2022-12-20T09:39:37;21.98;;;8.05;;
61009;SDS011;46897;55.340;86.082;2022-12-20T09:42:06;18.77;;;7.10;;
61009;SDS011;46897;55.340;86.082;2022-12-20T09:44:37;23.10;;;7.18;;
61009;SDS011;46897;55.340;86.082;2022-12-20T09:47:13;22.80;;;8.20;;
61009;SDS011;46897;55.340;86.082;2022-12-20T09:49:46;24.20;;;8.50;;
61009;SDS011;46897;55.340;86.082;2022-12-20T09:52:24;32.17;;;8.88;;
61009;SDS011;46897;55.340;86.082;2022-12-20T09:55:03;21.40;;;7.78;;
61009;SDS011;46897;55.340;86.082;2022-12-20T09:57:47;20.33;;;7.05;;
61009;SDS011;46897;55.340;86.082;2022-12-20T10:00:33;17.63;;;6.40;;
61009;SDS011;46897;55.340;86.082;2022-12-20T10:03:03;15.45;;;6.50;;
61009;SDS011;46897;55.340;86.082;2022-12-20T10:05:38;17.65;;;6.75;;
61009;SDS011;46897;55.340;86.082;2022-12-20T10:08:22;17.85;;;7.13;;
61009;SDS011;46897;55.340;86.082;2022-12-20T10:11:01;20.20;;;7.47;;
61009;SDS011;46897;55.340;86.082;2022-12-20T10:13:46;25.33;;;8.55;;
61009;SDS011;46897;55.340;86.082;2022-12-20T10:16:31;26.95;;;10.15;;
61009;SDS011;46897;55.340;86.082;2022-12-20T10:19:16;22.25;;;7.78;;
61009;SDS011;46897;55.340;86.082;2022-12-20T10:22:02;24.35;;;9.55;;
61009;SDS011;46897;55.340;86.082;2022-12-20T10:24:37;27.15;;;10.02;;
61009;SDS011;46897;55.340;86.082;2022-12-20T10:27:10;31.30;;;10.60;;
61009;SDS011;46897;55.340;86.082;2022-12-20T10:29:42;28.42;;;9.30;;
61009;SDS011;46897;55.340;86.082;2022-12-20T10:32:14;23.85;;;9.52;;
61009;SDS011;46897;55.340;86.082;2022-12-20T10:34:46;32.65;;;9.13;;
61009;SDS011;46897;55.340;86.082;2022-12-20T10:37:22;33.83;;;10.55;;
61009;SDS011;46897;55.340;86.082;2022-12-20T10:39:51;32.13;;;11.32;;
61009;SDS011;46897;55.340;86.082;2022-12-20T10:42:24;29.77;;;10.95;;
61009;SDS011;46897;55.340;86.082;2022-12-20T10:45:05;28.10;;;9.35;;
61009;SDS011;46897;55.340;86.082;2022-12-20T10:48:20;22.38;;;8.02;;
61009;SDS011;46897;55.340;86.082;2022-12-20T10:50:56;31.73;;;10.35;;
61009;SDS011;46897;55.340;86.082;2022-12-20T10:53:27;25.63;;;8.95;;
61009;SDS011;46897;55.340;86.082;2022-12-20T10:56:09;22.15;;;8.57;;
61009;SDS011;46897;55.340;86.082;2022-12-20T10:58:50;18.20;;;6.22;;
61009;SDS011;46897;55.340;86.082;2022-12-20T11:01:21;21.85;;;7.13;;
61009;SDS011;46897;55.340;86.082;2022-12-20T11:03:57;20.60;;;7.47;;
61009;SDS011;46897;55.340;86.082;2022-12-20T11:06:38;16.42;;;7.45;;
61009;SDS011;46897;55.340;86.082;2022-12-20T11:09:26;22.75;;;8.57;;
61009;SDS011;46897;55.340;86.082;2022-12-20T11:12:01;22.35;;;7.60;;
61009;SDS011;46897;55.340;86.082;2022-12-20T11:14:33;20.75;;;7.32;;
61009;SDS011;46897;55.340;86.082;2022-12-20T11:17:13;17.85;;;6.88;;
61009;SDS011;46897;55.340;86.082;2022-12-20T11:22:50;30.13;;;9.50;;
61009;SDS011;46897;55.340;86.082;2022-12-20T11:25:30;26.45;;;8.55;;
61009;SDS011;46897;55.340;86.082;2022-12-20T11:31:00;20.98;;;7.97;;
61009;SDS011;46897;55.340;86.082;2022-12-20T11:33:44;20.25;;;7.78;;
61009;SDS011;46897;55.340;86.082;2022-12-20T11:36:27;17.73;;;7.10;;
61009;SDS011;46897;55.340;86.082;2022-12-20T11:39:08;22.08;;;8.82;;
61009;SDS011;46897;55.340;86.082;2022-12-20T11:41:47;19.73;;;6.88;;
61009;SDS011;46897;55.340;86.082;2022-12-20T11:44:24;28.08;;;9.10;;
61009;SDS011;46897;55.340;86.082;2022-12-20T11:47:08;35.40;;;10.88;;
61009;SDS011;46897;55.340;86.082;2022-12-20T11:50:00;27.65;;;9.10;;
61009;SDS011;46897;55.340;86.082;2022-12-20T11:52:42;30.17;;;10.68;;
61009;SDS011;46897;55.340;86.082;2022-12-20T11:55:16;30.67;;;10.10;;
61009;SDS011;46897;55.340;86.082;2022-12-20T11:57:50;33.17;;;10.10;;
61009;SDS011;46897;55.340;86.082;2022-12-20T12:00:46;30.85;;;10.95;;
61009;SDS011;46897;55.340;86.082;2022-12-20T12:03:24;28.67;;;10.65;;
61009;SDS011;46897;55.340;86.082;2022-12-20T12:05:58;31.45;;;11.30;;
61009;SDS011;46897;55.340;86.082;2022-12-20T12:08:33;36.67;;;12.55;;
61009;SDS011;46897;55.340;86.082;2022-12-20T12:11:11;36.40;;;9.95;;
61009;SDS011;46897;55.340;86.082;2022-12-20T12:14:05;30.15;;;11.10;;
61009;SDS011;46897;55.340;86.082;2022-12-20T12:16:42;28.17;;;11.07;;
61009;SDS011;46897;55.340;86.082;2022-12-20T12:19:17;18.50;;;7.38;;
61009;SDS011;46897;55.340;86.082;2022-12-20T12:21:48;24.08;;;8.02;;
61009;SDS011;46897;55.340;86.082;2022-12-20T12:24:24;31.13;;;10.68;;
61009;SDS011;46897;55.340;86.082;2022-12-20T12:26:57;33.00;;;11.43;;
61009;SDS011;46897;55.340;86.082;2022-12-20T12:29:27;23.83;;;9.20;;
61009;SDS011;46897;55.340;86.082;2022-12-20T12:31:59;24.52;;;8.95;;
61009;SDS011;46897;55.340;86.082;2022-12-20T12:34:40;25.05;;;7.78;;
61009;SDS011;46897;55.340;86.082;2022-12-20T12:37:25;25.40;;;8.88;;
61009;SDS011;46897;55.340;86.082;2022-12-20T12:43:36;33.65;;;11.48;;
61009;SDS011;46897;55.340;86.082;2022-12-20T12:46:13;29.48;;;10.68;;
61009;SDS011;46897;55.340;86.082;2022-12-20T12:48:49;27.30;;;10.52;;
61009;SDS011;46897;55.340;86.082;2022-12-20T12:51:23;32.70;;;10.70;;
61009;SDS011;46897;55.340;86.082;2022-12-20T12:54:01;36.67;;;12.70;;
61009;SDS011;46897;55.340;86.082;2022-12-20T12:56:40;31.13;;;12.48;;
61009;SDS011;46897;55.340;86.082;2022-12-20T12:59:38;33.22;;;11.75;;
61009;SDS011;46897;55.340;86.082;2022-12-20T13:02:23;33.05;;;11.68;;
61009;SDS011;46897;55.340;86.082;2022-12-20T13:04:55;31.33;;;12.23;;
61009;SDS011;46897;55.340;86.082;2022-12-20T13:07:28;28.83;;;10.85;;
61009;SDS011;46897;55.340;86.082;2022-12-20T13:13:12;40.63;;;14.15;;
61009;SDS011;46897;55.340;86.082;2022-12-20T13:15:51;34.85;;;12.27;;
61009;SDS011;46897;55.340;86.082;2022-12-20T13:18:33;32.78;;;11.73;;
61009;SDS011;46897;55.340;86.082;2022-12-20T13:21:23;25.85;;;9.32;;
61009;SDS011;46897;55.340;86.082;2022-12-20T13:29:51;32.88;;;10.82;;
61009;SDS011;46897;55.340;86.082;2022-12-20T13:35:30;31.80;;;10.75;;
61009;SDS011;46897;55.340;86.082;2022-12-20T13:41:38;27.27;;;9.57;;
61009;SDS011;46897;55.340;86.082;2022-12-20T13:47:18;24.30;;;10.25;;
61009;SDS011;46897;55.340;86.082;2022-12-20T13:50:00;32.95;;;9.88;;
61009;SDS011;46897;55.340;86.082;2022-12-20T13:52:46;27.10;;;9.68;;
61009;SDS011;46897;55.340;86.082;2022-12-20T13:55:24;24.77;;;9.43;;
61009;SDS011;46897;55.340;86.082;2022-12-20T13:58:02;32.90;;;9.45;;
61009;SDS011;46897;55.340;86.082;2022-12-20T14:00:35;29.80;;;10.50;;
61009;SDS011;46897;55.340;86.082;2022-12-20T14:03:05;35.67;;;11.45;;
61009;SDS011;46897;55.340;86.082;2022-12-20T14:05:46;28.25;;;10.25;;
61009;SDS011;46897;55.340;86.082;2022-12-20T14:08:16;22.73;;;9.27;;
61009;SDS011;46897;55.340;86.082;2022-12-20T14:10:48;29.10;;;10.18;;
61009;SDS011;46897;55.340;86.082;2022-12-20T14:13:20;23.20;;;8.88;;
61009;SDS011;46897;55.340;86.082;2022-12-20T14:15:51;30.55;;;10.07;;
61009;SDS011;46897;55.340;86.082;2022-12-20T14:18:22;26.30;;;8.63;;
61009;SDS011;46897;55.340;86.082;2022-12-20T14:20:54;24.25;;;9.50;;
61009;SDS011;46897;55.340;86.082;2022-12-20T14:23:31;27.08;;;8.75;;
61009;SDS011;46897;55.340;86.082;2022-12-20T14:26:14;30.20;;;10.85;;
61009;SDS011;46897;55.340;86.082;2022-12-20T14:28:45;30.98;;;8.73;;
61009;SDS011;46897;55.340;86.082;2022-12-20T14:31:23;24.85;;;8.45;;
61009;SDS011;46897;55.340;86.082;2022-12-20T14:34:02;24.17;;;8.52;;
61009;SDS011;46897;55.340;86.082;2022-12-20T14:36:35;30.23;;;9.45;;
61009;SDS011;46897;55.340;86.082;2022-12-20T14:41:54;34.20;;;9.10;;
61009;SDS011;46897;55.340;86.082;2022-12-20T14:44:24;33.80;;;10.98;;
61009;SDS011;46897;55.340;86.082;2022-12-20T14:46:55;35.75;;;10.60;;
61009;SDS011;46897;55.340;86.082;2022-12-20T14:49:26;34.60;;;10.80;;
61009;SDS011;46897;55.340;86.082;2022-12-20T14:52:10;30.05;;;10.68;;
61009;SDS011;46897;55.340;86.082;2022-12-20T14:54:42;42.00;;;12.70;;
61009;SDS011;46897;55.340;86.082;2022-12-20T14:57:38;35.53;;;10.63;;
61009;SDS011;46897;55.340;86.082;2022-12-20T15:00:13;22.33;;;9.52;;
61009;SDS011;46897;55.340;86.082;2022-12-20T15:02:51;38.15;;;9.60;;
61009;SDS011;46897;55.340;86.082;2022-12-20T15:05:44;35.97;;;10.73;;
61009;SDS011;46897;55.340;86.082;2022-12-20T15:08:18;31.77;;;8.57;;
61009;SDS011;46897;55.340;86.082;2022-12-20T15:10:53;31.17;;;10.13;;
61009;SDS011;46897;55.340;86.082;2022-12-20T15:13:25;33.85;;;10.90;;
61009;SDS011;46897;55.340;86.082;2022-12-20T15:15:58;25.63;;;8.82;;
61009;SDS011;46897;55.340;86.082;2022-12-20T15:18:29;30.80;;;10.20;;
61009;SDS011;46897;55.340;86.082;2022-12-20T15:21:02;24.92;;;8.68;;